DLH5EC EDDF-EDDM
Flight info
| Callsign | DLH5EC |
|---|---|
| Flight time | N/A |
| Altitude | 23000 |
| Route | CINDY8S CINDY Z74 HAREM T104 ROKIL ROKIL1A |
| Aircraft | A346/H-SDE2E3FGHIJ3J4J5M1RWXY/LB1D1 |
Departure
| Time | 2026-05-06 12:08 |
|---|---|
| Airport | Frankfurt Main Airport (EDDF) |
Arrival
| Time | N/A |
|---|---|
| Airport | Munich Airport (EDDM) |
| Time | Latitude | Longitude | Altitude | Speed | Heading |
|---|---|---|---|---|---|
| 2026-05-06 11:42 | 50.04540 | 8.56756 | 364 ft | 0 kts | 295° |
| 2026-05-06 11:55 | 50.04531 | 8.56787 | 368 ft | 4 kts | 287° |
| 2026-05-06 11:56 | 50.04530 | 8.56812 | 370 ft | 2 kts | 256° |
| 2026-05-06 11:56 | 50.04536 | 8.56849 | 371 ft | 4 kts | 250° |
| 2026-05-06 11:56 | 50.04547 | 8.56882 | 372 ft | 4 kts | 227° |
| 2026-05-06 11:56 | 50.04560 | 8.56895 | 372 ft | 2 kts | 194° |
| 2026-05-06 11:57 | 50.04585 | 8.56904 | 373 ft | 4 kts | 193° |
| 2026-05-06 11:57 | 50.04611 | 8.56914 | 372 ft | 4 kts | 194° |
| 2026-05-06 11:57 | 50.04637 | 8.56925 | 371 ft | 4 kts | 199° |
| 2026-05-06 11:57 | 50.04661 | 8.56940 | 370 ft | 2 kts | 206° |
| 2026-05-06 11:58 | 50.04663 | 8.56941 | 370 ft | 0 kts | 206° |
| 2026-05-06 11:59 | 50.04661 | 8.56940 | 370 ft | 2 kts | 206° |
| 2026-05-06 12:00 | 50.04634 | 8.56924 | 368 ft | 6 kts | 197° |
| 2026-05-06 12:00 | 50.04630 | 8.56922 | 368 ft | 0 kts | 197° |
| 2026-05-06 12:00 | 50.04599 | 8.56909 | 369 ft | 6 kts | 195° |
| 2026-05-06 12:01 | 50.04562 | 8.56895 | 369 ft | 3 kts | 194° |
| 2026-05-06 12:01 | 50.04549 | 8.56890 | 369 ft | 1 kts | 194° |
| 2026-05-06 12:01 | 50.04514 | 8.56876 | 367 ft | 10 kts | 194° |
| 2026-05-06 12:01 | 50.04443 | 8.56785 | 372 ft | 16 kts | 246° |
| 2026-05-06 12:02 | 50.04393 | 8.56596 | 369 ft | 21 kts | 247° |
| 2026-05-06 12:02 | 50.04335 | 8.56364 | 365 ft | 24 kts | 250° |
| 2026-05-06 12:02 | 50.04276 | 8.56107 | 364 ft | 26 kts | 250° |
| 2026-05-06 12:02 | 50.04213 | 8.55833 | 366 ft | 28 kts | 250° |
| 2026-05-06 12:03 | 50.04153 | 8.55578 | 367 ft | 23 kts | 250° |
| 2026-05-06 12:03 | 50.04095 | 8.55332 | 365 ft | 25 kts | 250° |
| 2026-05-06 12:03 | 50.04034 | 8.55078 | 366 ft | 26 kts | 249° |
| 2026-05-06 12:03 | 50.03974 | 8.54834 | 366 ft | 27 kts | 249° |
| 2026-05-06 12:04 | 50.03925 | 8.54634 | 363 ft | 28 kts | 249° |
| 2026-05-06 12:04 | 50.03865 | 8.54391 | 364 ft | 22 kts | 245° |
| 2026-05-06 12:04 | 50.03788 | 8.54176 | 361 ft | 23 kts | 249° |
| 2026-05-06 12:04 | 50.03729 | 8.53928 | 358 ft | 25 kts | 249° |
| 2026-05-06 12:05 | 50.03669 | 8.53680 | 355 ft | 23 kts | 249° |
| 2026-05-06 12:05 | 50.03608 | 8.53432 | 351 ft | 25 kts | 249° |
| 2026-05-06 12:05 | 50.03543 | 8.53165 | 355 ft | 27 kts | 249° |
| 2026-05-06 12:05 | 50.03473 | 8.52882 | 352 ft | 29 kts | 249° |
| 2026-05-06 12:06 | 50.03419 | 8.52662 | 352 ft | 17 kts | 249° |
| 2026-05-06 12:06 | 50.03372 | 8.52602 | 353 ft | 10 kts | 192° |
| 2026-05-06 12:06 | 50.03335 | 8.52596 | 345 ft | 0 kts | 181° |
| 2026-05-06 12:07 | 50.03332 | 8.52596 | 346 ft | 1 kts | 181° |
| 2026-05-06 12:07 | 50.03311 | 8.52596 | 347 ft | 5 kts | 181° |
| 2026-05-06 12:07 | 50.03089 | 8.52595 | 344 ft | 65 kts | 179° |
| 2026-05-06 12:07 | 50.02419 | 8.52602 | 353 ft | 125 kts | 180° |
| 2026-05-06 12:08 | 50.01375 | 8.52620 | 367 ft | 171 kts | 181° |
| 2026-05-06 12:08 | 50.00160 | 8.52691 | 956 ft | 170 kts | 179° |
| 2026-05-06 12:08 | 49.99026 | 8.52790 | 1809 ft | 159 kts | 178° |
| 2026-05-06 12:08 | 49.97933 | 8.52928 | 2454 ft | 158 kts | 177° |
| 2026-05-06 12:09 | 49.96818 | 8.53155 | 2960 ft | 167 kts | 167° |
| 2026-05-06 12:09 | 49.95783 | 8.54088 | 3394 ft | 181 kts | 135° |
| 2026-05-06 12:09 | 49.95200 | 8.55882 | 3812 ft | 196 kts | 108° |
| 2026-05-06 12:09 | 49.94853 | 8.58016 | 4246 ft | 209 kts | 110° |
| 2026-05-06 12:10 | 49.94217 | 8.60145 | 4659 ft | 223 kts | 123° |
| 2026-05-06 12:10 | 49.93386 | 8.62285 | 5048 ft | 241 kts | 125° |
| 2026-05-06 12:10 | 49.92476 | 8.64598 | 5446 ft | 261 kts | 124° |
| 2026-05-06 12:10 | 49.91515 | 8.67107 | 6001 ft | 277 kts | 123° |
| 2026-05-06 12:11 | 49.90542 | 8.69732 | 6812 ft | 282 kts | 122° |
| 2026-05-06 12:11 | 49.89571 | 8.72392 | 7733 ft | 284 kts | 122° |
| 2026-05-06 12:11 | 49.88593 | 8.75088 | 8635 ft | 288 kts | 122° |
| 2026-05-06 12:11 | 49.87601 | 8.77828 | 9556 ft | 293 kts | 122° |
| 2026-05-06 12:12 | 49.86592 | 8.80614 | 10336 ft | 301 kts | 122° |
| 2026-05-06 12:12 | 49.85552 | 8.83481 | 10852 ft | 317 kts | 122° |
| 2026-05-06 12:12 | 49.84436 | 8.86551 | 11299 ft | 335 kts | 122° |
| 2026-05-06 12:12 | 49.83259 | 8.89795 | 11746 ft | 354 kts | 122° |
| 2026-05-06 12:13 | 49.82022 | 8.93204 | 12149 ft | 372 kts | 122° |
| 2026-05-06 12:13 | 49.80721 | 8.96781 | 12671 ft | 386 kts | 122° |
| 2026-05-06 12:13 | 49.79392 | 9.00435 | 13482 ft | 391 kts | 122° |
| 2026-05-06 12:13 | 49.78047 | 9.04129 | 14289 ft | 394 kts | 121° |
| 2026-05-06 12:14 | 49.76818 | 9.07953 | 15078 ft | 399 kts | 116° |
| 2026-05-06 12:14 | 49.75817 | 9.11987 | 15867 ft | 404 kts | 111° |
| 2026-05-06 12:14 | 49.74858 | 9.16090 | 16655 ft | 406 kts | 115° |
| 2026-05-06 12:14 | 49.73614 | 9.19950 | 17387 ft | 407 kts | 123° |
| 2026-05-06 12:15 | 49.71955 | 9.23512 | 18130 ft | 408 kts | 131° |
| 2026-05-06 12:15 | 49.70114 | 9.26875 | 18787 ft | 412 kts | 133° |
| 2026-05-06 12:15 | 49.68220 | 9.30231 | 19405 ft | 416 kts | 134° |
| 2026-05-06 12:15 | 49.66295 | 9.33613 | 20028 ft | 421 kts | 134° |
| 2026-05-06 12:16 | 49.64349 | 9.37032 | 20645 ft | 425 kts | 133° |
| 2026-05-06 12:16 | 49.62384 | 9.40487 | 21279 ft | 429 kts | 133° |
| 2026-05-06 12:16 | 49.60402 | 9.43976 | 21899 ft | 434 kts | 133° |
| 2026-05-06 12:16 | 49.58401 | 9.47499 | 22472 ft | 439 kts | 134° |
| 2026-05-06 12:17 | 49.56390 | 9.51040 | 22769 ft | 438 kts | 134° |
| 2026-05-06 12:17 | 49.54385 | 9.54561 | 22773 ft | 436 kts | 134° |
| 2026-05-06 12:17 | 49.52404 | 9.58031 | 22782 ft | 435 kts | 134° |
| 2026-05-06 12:17 | 49.50403 | 9.61531 | 22787 ft | 435 kts | 134° |
| 2026-05-06 12:18 | 49.48400 | 9.65029 | 22788 ft | 435 kts | 134° |
| 2026-05-06 12:18 | 49.46388 | 9.68536 | 22796 ft | 435 kts | 134° |
| 2026-05-06 12:18 | 49.44385 | 9.72024 | 22796 ft | 435 kts | 134° |
| 2026-05-06 12:18 | 49.42377 | 9.75517 | 22802 ft | 435 kts | 134° |
| 2026-05-06 12:19 | 49.40370 | 9.79000 | 22798 ft | 435 kts | 134° |
| 2026-05-06 12:19 | 49.38363 | 9.82484 | 22804 ft | 435 kts | 134° |
| 2026-05-06 12:19 | 49.36354 | 9.85966 | 22787 ft | 435 kts | 134° |
| 2026-05-06 12:19 | 49.34343 | 9.89445 | 22804 ft | 435 kts | 134° |
| 2026-05-06 12:20 | 49.32358 | 9.92867 | 22803 ft | 435 kts | 134° |
| 2026-05-06 12:20 | 49.30346 | 9.96330 | 22795 ft | 434 kts | 134° |
| 2026-05-06 12:20 | 49.28338 | 9.99781 | 22790 ft | 433 kts | 134° |
| 2026-05-06 12:20 | 49.26326 | 10.03233 | 22805 ft | 433 kts | 134° |
| 2026-05-06 12:21 | 49.24318 | 10.06676 | 22805 ft | 433 kts | 134° |
| 2026-05-06 12:21 | 49.22302 | 10.10127 | 22806 ft | 433 kts | 134° |